Time,TemperatureF,DewpointF,PressureIn,WindDirection,WindDirectionDegrees,WindSpeedMPH,WindSpeedGustMPH,Humidity,HourlyPrecipIn,Conditions,Clouds,dailyrainin,SolarRadiationWatts/m^2,SoftwareType,DateUTC
2014-12-21 00:00:00,47.7,44.6,30.19,SE,133,0.0,0.0,89,0.00,RA,,0.00,0.0,WeatherDisplay:10.37,2014-12-21 06:00:00,
2014-12-21 00:05:00,47.7,44.6,30.19,SE,133,0.0,0.0,89,0.00,RA,,0.00,0.0,WeatherDisplay:10.37,2014-12-21 06:05:00,
2014-12-21 00:10:00,47.7,44.6,30.19,SE,133,0.0,0.0,89,0.00,OVC,,0.00,0.0,WeatherDisplay:10.37,2014-12-21 06:10:00,
2014-12-21 00:15:00,47.7,44.6,30.18,SE,133,0.0,0.0,89,0.00,OVC,,0.00,0.0,WeatherDisplay:10.37,2014-12-21 06:15:00,
2014-12-21 00:20:00,47.7,44.6,30.18,SE,133,0.0,0.0,89,0.00,OVC,,0.00,0.0,WeatherDisplay:10.37,2014-12-21 06:20:00,
2014-12-21 00:25:00,47.7,44.6,30.17,SE,133,0.0,0.0,89,0.00,OVC,,0.00,0.0,WeatherDisplay:10.37,2014-12-21 06:25:00,
2014-12-21 00:30:00,47.8,44.7,30.17,SE,134,0.0,0.0,89,0.00,OVC,,0.00,0.0,WeatherDisplay:10.37,2014-12-21 06:30:00,
2014-12-21 00:35:00,47.8,44.7,30.17,SE,134,0.0,0.0,89,0.00,OVC,,0.00,0.0,WeatherDisplay:10.37,2014-12-21 06:35:00,
2014-12-21 00:40:00,47.8,44.7,30.17,SE,134,0.0,0.0,89,0.00,OVC,,0.00,0.0,WeatherDisplay:10.37,2014-12-21 06:40:00,
2014-12-21 00:45:00,47.8,44.7,30.17,SE,134,0.0,0.0,89,0.00,OVC,,0.00,0.0,WeatherDisplay:10.37,2014-12-21 06:45:00,
2014-12-21 00:50:00,47.8,44.7,30.17,SE,134,0.0,0.0,89,0.00,OVC,,0.00,0.0,WeatherDisplay:10.37,2014-12-21 06:50:00,
2014-12-21 00:55:00,47.8,44.7,30.17,SE,134,0.0,0.0,89,0.00,OVC,,0.00,0.0,WeatherDisplay:10.37,2014-12-21 06:55:00,
2014-12-21 01:00:00,47.9,44.8,30.17,SE,134,0.0,0.0,89,0.00,OVC,,0.00,0.0,WeatherDisplay:10.37,2014-12-21 07:00:00,
2014-12-21 01:05:00,47.9,44.8,30.17,SE,140,0.0,0.0,89,0.00,OVC,,0.00,0.0,WeatherDisplay:10.37,2014-12-21 07:05:00,
2014-12-21 01:10:00,47.9,44.8,30.17,SSE,153,0.0,0.0,89,0.00,OVC,,0.00,0.0,WeatherDisplay:10.37,2014-12-21 07:10:00,
2014-12-21 01:15:00,47.9,44.8,30.17,SSE,155,0.0,0.0,89,0.00,OVC,,0.00,0.0,WeatherDisplay:10.37,2014-12-21 07:15:00,
2014-12-21 01:20:00,47.9,44.8,30.17,SSE,155,0.0,0.0,89,0.00,OVC,,0.00,0.0,WeatherDisplay:10.37,2014-12-21 07:20:00,
2014-12-21 01:25:00,47.9,44.8,30.17,SSE,150,0.0,0.0,89,0.00,OVC,,0.00,0.0,WeatherDisplay:10.37,2014-12-21 07:25:00,
2014-12-21 01:30:00,47.9,44.8,30.16,SSE,164,0.0,0.0,89,0.00,OVC,,0.00,0.0,WeatherDisplay:10.37,2014-12-21 07:30:00,
2014-12-21 01:35:00,47.9,44.8,30.16,SSE,164,0.0,0.0,89,0.00,OVC,,0.00,0.0,WeatherDisplay:10.37,2014-12-21 07:35:00,
2014-12-21 01:40:00,47.9,44.8,30.16,SE,124,0.0,0.0,89,0.00,OVC,,0.00,0.0,WeatherDisplay:10.37,2014-12-21 07:40:00,
2014-12-21 01:45:00,47.9,44.8,30.16,ESE,117,0.0,0.0,89,0.00,OVC,,0.00,0.0,WeatherDisplay:10.37,2014-12-21 07:45:00,
2014-12-21 01:50:00,47.9,44.8,30.16,ESE,117,0.0,0.0,89,0.00,OVC,,0.00,0.0,WeatherDisplay:10.37,2014-12-21 07:50:00,
2014-12-21 01:55:00,47.9,44.8,30.16,ESE,117,0.0,0.0,89,0.00,OVC,,0.00,0.0,WeatherDisplay:10.37,2014-12-21 07:55:00,
2014-12-21 02:00:00,47.9,44.8,30.15,ESE,117,0.0,0.0,89,0.00,OVC,,0.00,0.0,WeatherDisplay:10.37,2014-12-21 08:00:00,
2014-12-21 02:05:00,47.9,44.8,30.15,SE,143,0.0,0.0,89,0.00,OVC,,0.00,0.0,WeatherDisplay:10.37,2014-12-21 08:05:00,
2014-12-21 02:10:00,47.9,44.8,30.15,SE,143,0.0,0.0,89,0.00,OVC,,0.00,0.0,WeatherDisplay:10.37,2014-12-21 08:10:00,
2014-12-21 02:15:00,47.9,44.8,30.15,SE,138,1.2,1.2,89,0.00,OVC,,0.00,0.0,WeatherDisplay:10.37,2014-12-21 08:15:00,
2014-12-21 02:20:00,47.9,45.1,30.15,SE,137,0.0,0.0,90,0.00,OVC,,0.00,0.0,WeatherDisplay:10.37,2014-12-21 08:20:00,
2014-12-21 02:25:00,47.9,45.1,30.15,SE,137,0.0,0.0,90,0.00,OVC,,0.00,0.0,WeatherDisplay:10.37,2014-12-21 08:25:00,
2014-12-21 02:30:00,47.9,45.1,30.15,East,101,0.0,0.0,90,0.00,OVC,,0.00,0.0,WeatherDisplay:10.37,2014-12-21 08:30:00,
2014-12-21 02:35:00,47.9,45.1,30.15,East,101,0.0,0.0,90,0.00,OVC,,0.00,0.0,WeatherDisplay:10.37,2014-12-21 08:35:00,
2014-12-21 02:40:00,47.9,45.1,30.15,East,101,0.0,0.0,90,0.00,OVC,,0.00,0.0,WeatherDisplay:10.37,2014-12-21 08:40:00,
2014-12-21 02:45:00,48.0,45.2,30.14,East,101,0.0,0.0,90,0.00,OVC,,0.00,0.0,WeatherDisplay:10.37,2014-12-21 08:45:00,
2014-12-21 02:50:00,48.0,45.2,30.14,ESE,109,0.0,0.0,90,0.00,OVC,,0.00,0.0,WeatherDisplay:10.37,2014-12-21 08:50:00,
2014-12-21 02:55:00,48.0,45.2,30.14,ESE,109,0.0,0.0,90,0.00,OVC,,0.00,0.0,WeatherDisplay:10.37,2014-12-21 08:55:00,
2014-12-21 03:00:00,48.0,45.2,30.14,East,92,0.0,0.0,90,0.00,OVC,,0.00,0.0,WeatherDisplay:10.37,2014-12-21 09:00:00,
2014-12-21 03:05:00,48.0,45.2,30.14,East,92,0.0,0.0,90,0.00,OVC,,0.00,0.0,WeatherDisplay:10.37,2014-12-21 09:05:00,
2014-12-21 03:10:00,48.0,45.2,30.14,SSE,148,0.0,0.0,90,0.00,OVC,,0.00,0.0,WeatherDisplay:10.37,2014-12-21 09:10:00,
2014-12-21 03:15:00,48.0,45.2,30.13,East,97,0.0,0.0,90,0.00,OVC,,0.00,0.0,WeatherDisplay:10.37,2014-12-21 09:15:00,
2014-12-21 03:20:00,48.0,45.2,30.13,ESE,104,0.0,0.7,90,0.00,OVC,,0.00,0.0,WeatherDisplay:10.37,2014-12-21 09:20:00,
2014-12-21 03:25:00,48.0,45.2,30.13,ESE,117,0.0,0.1,90,0.00,OVC,,0.00,0.0,WeatherDisplay:10.37,2014-12-21 09:25:00,
2014-12-21 03:30:00,48.0,45.2,30.13,East,101,0.0,0.0,90,0.00,OVC,,0.00,0.0,WeatherDisplay:10.37,2014-12-21 09:30:00,
2014-12-21 03:35:00,48.0,45.2,30.12,East,84,0.0,0.0,90,0.00,OVC,,0.00,0.0,WeatherDisplay:10.37,2014-12-21 09:35:00,
2014-12-21 03:40:00,47.9,45.1,30.12,NE,53,2.3,0.0,90,0.00,OVC,,0.00,0.0,WeatherDisplay:10.37,2014-12-21 09:40:00,
2014-12-21 03:45:00,47.8,45.0,30.12,SSE,159,1.2,0.0,90,0.00,OVC,,0.00,0.0,WeatherDisplay:10.37,2014-12-21 09:45:00,
2014-12-21 03:50:00,47.8,45.0,30.11,SE,144,0.0,0.0,90,0.00,OVC,,0.00,0.0,WeatherDisplay:10.37,2014-12-21 09:50:00,
2014-12-21 03:55:00,47.8,45.3,30.12,SSE,168,3.5,3.5,91,0.00,OVC,,0.00,0.0,WeatherDisplay:10.37,2014-12-21 09:55:00,
2014-12-21 04:00:00,47.8,45.3,30.11,SSE,149,0.0,0.0,91,0.00,OVC,,0.00,0.0,WeatherDisplay:10.37,2014-12-21 10:00:00,
2014-12-21 04:05:00,47.7,45.2,30.11,SE,130,0.0,0.0,91,0.00,OVC,,0.00,0.0,WeatherDisplay:10.37,2014-12-21 10:05:00,
2014-12-21 04:10:00,47.7,45.2,30.11,SSE,168,0.0,0.0,91,0.00,OVC,,0.00,0.0,WeatherDisplay:10.37,2014-12-21 10:10:00,
2014-12-21 04:15:00,47.7,45.2,30.11,SE,136,0.0,0.0,91,0.00,OVC,,0.00,0.0,WeatherDisplay:10.37,2014-12-21 10:15:00,
2014-12-21 04:20:00,47.7,44.9,30.11,ESE,102,0.0,0.0,90,0.00,OVC,,0.00,0.0,WeatherDisplay:10.37,2014-12-21 10:20:00,
2014-12-21 04:25:00,47.6,44.8,30.11,SE,135,1.2,1.2,90,0.00,OVC,,0.00,0.0,WeatherDisplay:10.37,2014-12-21 10:25:00,
2014-12-21 04:30:00,47.6,44.8,30.11,ESE,113,4.6,4.6,90,0.00,OVC,,0.00,0.0,WeatherDisplay:10.37,2014-12-21 10:30:00,
2014-12-21 04:35:00,47.6,44.8,30.11,ESE,122,0.0,0.0,90,0.00,OVC,,0.00,0.0,WeatherDisplay:10.37,2014-12-21 10:35:00,
2014-12-21 04:40:00,47.6,44.8,30.11,ESE,102,0.0,0.0,90,0.00,OVC,,0.00,0.0,WeatherDisplay:10.37,2014-12-21 10:40:00,
2014-12-21 04:45:00,47.6,44.8,30.11,East,92,1.2,0.0,90,0.00,OVC,,0.00,0.0,WeatherDisplay:10.37,2014-12-21 10:45:00,
2014-12-21 04:50:00,47.6,44.8,30.10,SE,142,1.2,0.0,90,0.00,OVC,,0.00,0.0,WeatherDisplay:10.37,2014-12-21 10:50:00,
2014-12-21 04:55:00,47.6,44.8,30.10,ENE,63,0.0,0.0,90,0.00,OVC,,0.00,0.0,WeatherDisplay:10.37,2014-12-21 10:55:00,
2014-12-21 05:00:00,47.6,44.8,30.10,ESE,123,0.0,0.0,90,0.00,OVC,,0.00,0.0,WeatherDisplay:10.37,2014-12-21 11:00:00,
2014-12-21 05:05:00,47.6,44.8,30.10,East,99,0.0,0.0,90,0.00,OVC,,0.00,0.0,WeatherDisplay:10.37,2014-12-21 11:05:00,
2014-12-21 05:10:00,47.6,44.8,30.11,ESE,117,0.0,0.0,90,0.00,OVC,,0.00,0.0,WeatherDisplay:10.37,2014-12-21 11:10:00,
2014-12-21 05:15:00,47.6,44.8,30.11,ESE,105,1.2,0.0,90,0.00,OVC,,0.00,0.0,WeatherDisplay:10.37,2014-12-21 11:15:00,
2014-12-21 05:20:00,47.6,44.8,30.11,SSE,167,0.0,0.0,90,0.00,OVC,,0.00,0.0,WeatherDisplay:10.37,2014-12-21 11:20:00,
2014-12-21 05:25:00,47.6,44.8,30.11,SSE,153,0.0,0.0,90,0.00,OVC,,0.00,0.0,WeatherDisplay:10.37,2014-12-21 11:25:00,
2014-12-21 05:30:00,47.6,44.8,30.10,East,85,0.0,0.0,90,0.00,OVC,,0.00,0.0,WeatherDisplay:10.37,2014-12-21 11:30:00,
2014-12-21 05:35:00,47.6,44.8,30.10,SSE,147,0.0,0.0,90,0.00,OVC,,0.00,0.0,WeatherDisplay:10.37,2014-12-21 11:35:00,
2014-12-21 05:40:00,47.6,44.8,30.10,East,101,1.2,0.0,90,0.00,OVC,,0.00,0.0,WeatherDisplay:10.37,2014-12-21 11:40:00,
2014-12-21 05:45:00,47.7,44.9,30.10,ESE,117,0.0,0.0,90,0.00,OVC,,0.00,0.0,WeatherDisplay:10.37,2014-12-21 11:45:00,
2014-12-21 05:50:00,47.7,44.9,30.10,South,181,0.0,0.0,90,0.00,OVC,,0.00,0.0,WeatherDisplay:10.37,2014-12-21 11:50:00,
2014-12-21 05:55:00,47.7,44.9,30.10,SSW,212,0.0,0.0,90,0.00,OVC,,0.00,0.0,WeatherDisplay:10.37,2014-12-21 11:55:00,
2014-12-21 06:00:00,47.7,44.9,30.10,SSE,165,0.0,0.0,90,0.00,OVC,,0.00,0.0,WeatherDisplay:10.37,2014-12-21 12:00:00,
2014-12-21 06:05:00,47.7,44.9,30.10,NE,56,0.0,0.0,90,0.00,OVC,,0.00,0.0,WeatherDisplay:10.37,2014-12-21 12:05:00,
2014-12-21 06:10:00,47.7,44.9,30.10,ESE,105,2.3,0.0,90,0.00,OVC,,0.00,0.0,WeatherDisplay:10.37,2014-12-21 12:10:00,
2014-12-21 06:15:00,47.7,44.9,30.10,East,101,3.5,3.5,90,0.00,OVC,,0.00,0.0,WeatherDisplay:10.37,2014-12-21 12:15:00,
2014-12-21 06:20:00,47.7,44.9,30.10,SSE,153,0.0,0.0,90,0.00,OVC,,0.00,0.0,WeatherDisplay:10.37,2014-12-21 12:20:00,
2014-12-21 06:25:00,47.7,44.9,30.10,ESE,112,1.2,1.2,90,0.00,OVC,,0.00,0.0,WeatherDisplay:10.37,2014-12-21 12:25:00,
2014-12-21 06:30:00,47.8,45.0,30.10,ESE,121,0.0,0.0,90,0.00,OVC,,0.00,0.0,WeatherDisplay:10.37,2014-12-21 12:30:00,
2014-12-21 06:35:00,47.8,45.0,30.10,SE,140,0.0,0.0,90,0.00,OVC,,0.00,0.0,WeatherDisplay:10.37,2014-12-21 12:35:00,
2014-12-21 06:40:00,47.8,45.0,30.10,SE,124,1.0,0.0,90,0.00,OVC,,0.00,0.0,WeatherDisplay:10.37,2014-12-21 12:40:00,
2014-12-21 06:45:00,47.8,45.0,30.10,East,96,0.0,0.0,90,0.00,OVC,,0.00,0.0,WeatherDisplay:10.37,2014-12-21 12:45:00,
2014-12-21 06:50:00,47.8,45.0,30.10,SE,139,0.0,0.0,90,0.00,OVC,,0.00,0.0,WeatherDisplay:10.37,2014-12-21 12:50:00,
2014-12-21 06:55:00,47.8,45.0,30.11,SE,126,1.2,0.0,90,0.00,OVC,,0.00,0.0,WeatherDisplay:10.37,2014-12-21 12:55:00,
2014-12-21 07:00:00,47.8,45.0,30.11,SE,134,1.0,0.0,90,0.00,OVC,,0.00,0.0,WeatherDisplay:10.37,2014-12-21 13:00:00,
2014-12-21 07:05:00,47.8,45.0,30.11,SSE,165,0.0,0.0,90,0.00,OVC,,0.00,0.0,WeatherDisplay:10.37,2014-12-21 13:05:00,
2014-12-21 07:10:00,47.8,45.0,30.11,SE,126,1.2,0.0,90,0.00,OVC,,0.00,0.0,WeatherDisplay:10.37,2014-12-21 13:10:00,
2014-12-21 07:15:00,47.8,45.0,30.11,East,82,1.2,0.0,90,0.00,OVC,,0.00,0.0,WeatherDisplay:10.37,2014-12-21 13:15:00,
2014-12-21 07:20:00,47.8,45.0,30.10,SSE,167,0.0,0.0,90,0.00,OVC,,0.00,0.0,WeatherDisplay:10.37,2014-12-21 13:20:00,
2014-12-21 07:25:00,47.8,45.0,30.10,ESE,122,0.0,0.0,90,0.00,OVC,,0.00,0.0,WeatherDisplay:10.37,2014-12-21 13:25:00,
2014-12-21 07:30:00,47.8,45.0,30.10,ESE,104,0.0,0.0,90,0.00,OVC,,0.00,0.0,WeatherDisplay:10.37,2014-12-21 13:30:00,